sensor_id;sensor_type;location;lat;lon;timestamp;P1;durP1;ratioP1;P2;durP2;ratioP2
61393;SDS011;48555;50.952;-0.120;2023-05-10T00:00:32;2.78;;;1.17;;
61393;SDS011;48555;50.952;-0.120;2023-05-10T00:02:57;2.15;;;1.50;;
61393;SDS011;48555;50.952;-0.120;2023-05-10T00:05:23;2.65;;;1.30;;
61393;SDS011;48555;50.952;-0.120;2023-05-10T00:07:48;2.95;;;1.40;;
61393;SDS011;48555;50.952;-0.120;2023-05-10T00:10:13;1.70;;;1.23;;
61393;SDS011;48555;50.952;-0.120;2023-05-10T00:12:39;2.30;;;1.08;;
61393;SDS011;48555;50.952;-0.120;2023-05-10T00:15:04;2.42;;;1.27;;
61393;SDS011;48555;50.952;-0.120;2023-05-10T00:17:30;1.42;;;1.05;;
61393;SDS011;48555;50.952;-0.120;2023-05-10T00:19:56;2.47;;;1.50;;
61393;SDS011;48555;50.952;-0.120;2023-05-10T00:22:21;3.38;;;1.08;;
61393;SDS011;48555;50.952;-0.120;2023-05-10T00:24:46;2.10;;;1.27;;
61393;SDS011;48555;50.952;-0.120;2023-05-10T00:27:12;2.10;;;1.33;;
61393;SDS011;48555;50.952;-0.120;2023-05-10T00:29:37;2.78;;;1.08;;
61393;SDS011;48555;50.952;-0.120;2023-05-10T00:32:03;2.45;;;1.40;;
61393;SDS011;48555;50.952;-0.120;2023-05-10T00:34:28;3.58;;;1.50;;
61393;SDS011;48555;50.952;-0.120;2023-05-10T00:36:54;1.52;;;1.20;;
61393;SDS011;48555;50.952;-0.120;2023-05-10T00:39:19;3.10;;;1.33;;
61393;SDS011;48555;50.952;-0.120;2023-05-10T00:41:44;2.15;;;1.40;;
61393;SDS011;48555;50.952;-0.120;2023-05-10T00:44:10;3.90;;;1.48;;
61393;SDS011;48555;50.952;-0.120;2023-05-10T00:46:35;2.95;;;1.35;;
61393;SDS011;48555;50.952;-0.120;2023-05-10T00:49:01;2.15;;;1.27;;
61393;SDS011;48555;50.952;-0.120;2023-05-10T00:51:27;2.33;;;1.50;;
61393;SDS011;48555;50.952;-0.120;2023-05-10T00:53:52;3.30;;;1.60;;
61393;SDS011;48555;50.952;-0.120;2023-05-10T00:56:18;3.38;;;1.67;;
61393;SDS011;48555;50.952;-0.120;2023-05-10T00:58:45;2.95;;;1.58;;
61393;SDS011;48555;50.952;-0.120;2023-05-10T01:01:10;3.50;;;1.60;;
61393;SDS011;48555;50.952;-0.120;2023-05-10T01:03:37;3.10;;;1.77;;
61393;SDS011;48555;50.952;-0.120;2023-05-10T01:06:02;2.88;;;1.70;;
61393;SDS011;48555;50.952;-0.120;2023-05-10T01:08:28;3.35;;;1.85;;
61393;SDS011;48555;50.952;-0.120;2023-05-10T01:10:53;3.80;;;1.77;;
61393;SDS011;48555;50.952;-0.120;2023-05-10T01:13:28;2.90;;;1.83;;
61393;SDS011;48555;50.952;-0.120;2023-05-10T01:16:00;3.45;;;1.95;;
61393;SDS011;48555;50.952;-0.120;2023-05-10T01:18:29;3.85;;;1.90;;
61393;SDS011;48555;50.952;-0.120;2023-05-10T01:21:02;2.90;;;1.98;;
61393;SDS011;48555;50.952;-0.120;2023-05-10T01:35:43;3.38;;;1.90;;
61393;SDS011;48555;50.952;-0.120;2023-05-10T01:38:17;5.63;;;2.10;;
61393;SDS011;48555;50.952;-0.120;2023-05-10T01:40:53;4.20;;;2.20;;
61393;SDS011;48555;50.952;-0.120;2023-05-10T01:43:25;5.50;;;2.42;;
61393;SDS011;48555;50.952;-0.120;2023-05-10T01:46:00;5.20;;;2.13;;
61393;SDS011;48555;50.952;-0.120;2023-05-10T01:48:35;4.05;;;2.20;;
61393;SDS011;48555;50.952;-0.120;2023-05-10T01:51:05;3.75;;;2.25;;
61393;SDS011;48555;50.952;-0.120;2023-05-10T01:53:31;4.93;;;2.30;;
61393;SDS011;48555;50.952;-0.120;2023-05-10T01:55:58;4.30;;;1.95;;
61393;SDS011;48555;50.952;-0.120;2023-05-10T01:58:27;3.90;;;2.30;;
61393;SDS011;48555;50.952;-0.120;2023-05-10T02:00:55;4.07;;;2.40;;
61393;SDS011;48555;50.952;-0.120;2023-05-10T02:03:23;5.18;;;2.35;;
61393;SDS011;48555;50.952;-0.120;2023-05-10T02:05:51;5.05;;;2.63;;
61393;SDS011;48555;50.952;-0.120;2023-05-10T02:08:18;4.80;;;2.13;;
61393;SDS011;48555;50.952;-0.120;2023-05-10T02:10:45;4.85;;;2.55;;
61393;SDS011;48555;50.952;-0.120;2023-05-10T02:13:12;4.05;;;2.20;;
61393;SDS011;48555;50.952;-0.120;2023-05-10T02:15:41;3.10;;;2.25;;
61393;SDS011;48555;50.952;-0.120;2023-05-10T02:18:07;7.43;;;2.33;;
61393;SDS011;48555;50.952;-0.120;2023-05-10T02:20:35;4.07;;;2.20;;
61393;SDS011;48555;50.952;-0.120;2023-05-10T02:23:02;4.47;;;2.13;;
61393;SDS011;48555;50.952;-0.120;2023-05-10T02:25:28;4.72;;;2.42;;
61393;SDS011;48555;50.952;-0.120;2023-05-10T02:27:56;6.40;;;2.30;;
61393;SDS011;48555;50.952;-0.120;2023-05-10T02:30:23;5.90;;;2.58;;
61393;SDS011;48555;50.952;-0.120;2023-05-10T02:32:49;3.20;;;2.05;;
61393;SDS011;48555;50.952;-0.120;2023-05-10T02:35:16;5.80;;;2.38;;
61393;SDS011;48555;50.952;-0.120;2023-05-10T02:37:42;3.85;;;2.22;;
61393;SDS011;48555;50.952;-0.120;2023-05-10T02:40:09;6.15;;;2.50;;
61393;SDS011;48555;50.952;-0.120;2023-05-10T02:42:36;5.72;;;2.70;;
61393;SDS011;48555;50.952;-0.120;2023-05-10T02:45:14;5.93;;;2.47;;
61393;SDS011;48555;50.952;-0.120;2023-05-10T02:47:42;5.28;;;2.50;;
61393;SDS011;48555;50.952;-0.120;2023-05-10T02:50:08;4.05;;;2.50;;
61393;SDS011;48555;50.952;-0.120;2023-05-10T02:52:56;6.10;;;2.70;;
61393;SDS011;48555;50.952;-0.120;2023-05-10T02:55:25;4.60;;;2.40;;
61393;SDS011;48555;50.952;-0.120;2023-05-10T02:57:59;6.82;;;3.03;;
61393;SDS011;48555;50.952;-0.120;2023-05-10T03:00:26;5.07;;;2.83;;
61393;SDS011;48555;50.952;-0.120;2023-05-10T03:02:52;5.75;;;2.85;;
61393;SDS011;48555;50.952;-0.120;2023-05-10T03:05:18;5.00;;;2.83;;
61393;SDS011;48555;50.952;-0.120;2023-05-10T03:07:44;5.85;;;3.22;;
61393;SDS011;48555;50.952;-0.120;2023-05-10T03:10:10;6.57;;;2.88;;
61393;SDS011;48555;50.952;-0.120;2023-05-10T03:12:43;5.30;;;3.03;;
61393;SDS011;48555;50.952;-0.120;2023-05-10T03:26:05;6.10;;;3.10;;
61393;SDS011;48555;50.952;-0.120;2023-05-10T03:28:32;7.55;;;3.22;;
61393;SDS011;48555;50.952;-0.120;2023-05-10T03:30:59;7.30;;;3.22;;
61393;SDS011;48555;50.952;-0.120;2023-05-10T03:33:25;8.13;;;3.28;;
61393;SDS011;48555;50.952;-0.120;2023-05-10T03:35:50;9.13;;;3.60;;
61393;SDS011;48555;50.952;-0.120;2023-05-10T03:38:16;6.35;;;3.03;;
61393;SDS011;48555;50.952;-0.120;2023-05-10T03:40:41;6.32;;;3.20;;
61393;SDS011;48555;50.952;-0.120;2023-05-10T03:43:06;7.32;;;3.30;;
61393;SDS011;48555;50.952;-0.120;2023-05-10T03:45:32;6.93;;;3.33;;
61393;SDS011;48555;50.952;-0.120;2023-05-10T03:47:58;7.57;;;3.53;;
61393;SDS011;48555;50.952;-0.120;2023-05-10T03:50:23;7.53;;;3.28;;
61393;SDS011;48555;50.952;-0.120;2023-05-10T03:52:49;6.85;;;3.38;;
61393;SDS011;48555;50.952;-0.120;2023-05-10T03:55:15;8.30;;;4.00;;
61393;SDS011;48555;50.952;-0.120;2023-05-10T03:57:41;8.98;;;4.15;;
61393;SDS011;48555;50.952;-0.120;2023-05-10T04:00:06;7.93;;;4.15;;
61393;SDS011;48555;50.952;-0.120;2023-05-10T04:02:33;7.35;;;4.03;;
61393;SDS011;48555;50.952;-0.120;2023-05-10T04:04:58;6.63;;;3.65;;
61393;SDS011;48555;50.952;-0.120;2023-05-10T04:07:23;6.30;;;3.67;;
61393;SDS011;48555;50.952;-0.120;2023-05-10T04:09:49;6.13;;;3.50;;
61393;SDS011;48555;50.952;-0.120;2023-05-10T04:12:14;7.43;;;4.03;;
61393;SDS011;48555;50.952;-0.120;2023-05-10T04:14:39;10.75;;;4.05;;
61393;SDS011;48555;50.952;-0.120;2023-05-10T04:17:05;7.93;;;3.63;;
61393;SDS011;48555;50.952;-0.120;2023-05-10T04:19:31;8.32;;;3.83;;
61393;SDS011;48555;50.952;-0.120;2023-05-10T04:21:57;6.63;;;3.58;;
61393;SDS011;48555;50.952;-0.120;2023-05-10T04:24:23;7.88;;;3.90;;
61393;SDS011;48555;50.952;-0.120;2023-05-10T04:26:48;8.35;;;4.15;;
61393;SDS011;48555;50.952;-0.120;2023-05-10T04:29:13;10.05;;;3.40;;
61393;SDS011;48555;50.952;-0.120;2023-05-10T04:31:39;7.45;;;3.72;;
61393;SDS011;48555;50.952;-0.120;2023-05-10T04:34:04;8.20;;;3.70;;
61393;SDS011;48555;50.952;-0.120;2023-05-10T04:36:30;10.07;;;3.97;;
61393;SDS011;48555;50.952;-0.120;2023-05-10T04:38:57;8.25;;;4.25;;
61393;SDS011;48555;50.952;-0.120;2023-05-10T04:41:22;8.90;;;4.00;;
61393;SDS011;48555;50.952;-0.120;2023-05-10T04:43:48;10.57;;;4.68;;
61393;SDS011;48555;50.952;-0.120;2023-05-10T04:46:14;12.00;;;4.57;;
61393;SDS011;48555;50.952;-0.120;2023-05-10T04:48:39;9.95;;;4.45;;
61393;SDS011;48555;50.952;-0.120;2023-05-10T04:51:05;13.35;;;5.10;;
61393;SDS011;48555;50.952;-0.120;2023-05-10T04:53:31;9.80;;;4.53;;
61393;SDS011;48555;50.952;-0.120;2023-05-10T04:55:57;12.00;;;5.10;;
61393;SDS011;48555;50.952;-0.120;2023-05-10T04:58:22;9.23;;;4.22;;
61393;SDS011;48555;50.952;-0.120;2023-05-10T05:00:47;11.27;;;4.93;;
61393;SDS011;48555;50.952;-0.120;2023-05-10T05:03:13;11.60;;;4.57;;
61393;SDS011;48555;50.952;-0.120;2023-05-10T05:05:38;9.23;;;4.70;;
61393;SDS011;48555;50.952;-0.120;2023-05-10T05:08:04;11.43;;;4.60;;
61393;SDS011;48555;50.952;-0.120;2023-05-10T05:10:29;8.82;;;4.32;;
61393;SDS011;48555;50.952;-0.120;2023-05-10T05:12:55;11.68;;;4.40;;
61393;SDS011;48555;50.952;-0.120;2023-05-10T05:15:20;8.65;;;4.40;;
61393;SDS011;48555;50.952;-0.120;2023-05-10T05:17:46;8.90;;;3.90;;
61393;SDS011;48555;50.952;-0.120;2023-05-10T05:20:11;9.85;;;4.45;;
61393;SDS011;48555;50.952;-0.120;2023-05-10T05:22:38;10.40;;;4.43;;
61393;SDS011;48555;50.952;-0.120;2023-05-10T05:25:03;9.43;;;3.78;;
61393;SDS011;48555;50.952;-0.120;2023-05-10T05:27:29;8.75;;;3.80;;
61393;SDS011;48555;50.952;-0.120;2023-05-10T05:29:55;8.82;;;3.75;;
61393;SDS011;48555;50.952;-0.120;2023-05-10T05:32:21;10.00;;;4.22;;
61393;SDS011;48555;50.952;-0.120;2023-05-10T05:34:47;8.77;;;3.67;;
61393;SDS011;48555;50.952;-0.120;2023-05-10T05:37:16;8.20;;;3.78;;
61393;SDS011;48555;50.952;-0.120;2023-05-10T05:39:46;11.50;;;4.75;;
61393;SDS011;48555;50.952;-0.120;2023-05-10T05:42:12;12.10;;;4.25;;
61393;SDS011;48555;50.952;-0.120;2023-05-10T05:44:38;8.15;;;3.80;;
61393;SDS011;48555;50.952;-0.120;2023-05-10T05:47:04;9.73;;;3.83;;
61393;SDS011;48555;50.952;-0.120;2023-05-10T05:49:30;8.13;;;4.03;;
61393;SDS011;48555;50.952;-0.120;2023-05-10T05:51:59;8.40;;;3.88;;
61393;SDS011;48555;50.952;-0.120;2023-05-10T05:54:28;9.63;;;3.35;;
61393;SDS011;48555;50.952;-0.120;2023-05-10T05:56:55;9.73;;;3.70;;
61393;SDS011;48555;50.952;-0.120;2023-05-10T05:59:21;10.10;;;3.78;;
61393;SDS011;48555;50.952;-0.120;2023-05-10T06:01:47;9.43;;;3.63;;
61393;SDS011;48555;50.952;-0.120;2023-05-10T06:04:12;9.63;;;3.42;;
61393;SDS011;48555;50.952;-0.120;2023-05-10T06:06:37;8.63;;;3.40;;
61393;SDS011;48555;50.952;-0.120;2023-05-10T06:09:03;10.63;;;3.70;;
61393;SDS011;48555;50.952;-0.120;2023-05-10T06:11:29;9.63;;;3.53;;
61393;SDS011;48555;50.952;-0.120;2023-05-10T06:13:55;11.13;;;3.55;;
61393;SDS011;48555;50.952;-0.120;2023-05-10T06:16:21;9.48;;;3.88;;
61393;SDS011;48555;50.952;-0.120;2023-05-10T06:18:46;10.23;;;3.53;;
61393;SDS011;48555;50.952;-0.120;2023-05-10T06:21:11;8.80;;;3.50;;
61393;SDS011;48555;50.952;-0.120;2023-05-10T06:23:37;7.97;;;3.40;;
61393;SDS011;48555;50.952;-0.120;2023-05-10T06:26:02;11.82;;;4.07;;
61393;SDS011;48555;50.952;-0.120;2023-05-10T06:28:28;10.35;;;3.78;;
61393;SDS011;48555;50.952;-0.120;2023-05-10T06:30:53;9.25;;;3.60;;
61393;SDS011;48555;50.952;-0.120;2023-05-10T06:33:18;9.38;;;3.38;;
61393;SDS011;48555;50.952;-0.120;2023-05-10T06:35:44;10.70;;;3.50;;
61393;SDS011;48555;50.952;-0.120;2023-05-10T06:38:09;8.98;;;3.60;;
61393;SDS011;48555;50.952;-0.120;2023-05-10T06:40:34;10.32;;;3.72;;
61393;SDS011;48555;50.952;-0.120;2023-05-10T06:43:00;7.50;;;3.20;;
61393;SDS011;48555;50.952;-0.120;2023-05-10T06:45:26;8.63;;;3.58;;
61393;SDS011;48555;50.952;-0.120;2023-05-10T06:47:51;7.63;;;3.30;;
61393;SDS011;48555;50.952;-0.120;2023-05-10T06:50:17;10.18;;;3.63;;
61393;SDS011;48555;50.952;-0.120;2023-05-10T06:52:42;9.15;;;3.78;;
61393;SDS011;48555;50.952;-0.120;2023-05-10T06:55:08;7.80;;;3.40;;
61393;SDS011;48555;50.952;-0.120;2023-05-10T06:57:34;7.97;;;3.38;;
61393;SDS011;48555;50.952;-0.120;2023-05-10T07:00:00;7.50;;;3.03;;
61393;SDS011;48555;50.952;-0.120;2023-05-10T07:02:26;8.48;;;3.20;;
61393;SDS011;48555;50.952;-0.120;2023-05-10T07:04:51;9.00;;;3.47;;
61393;SDS011;48555;50.952;-0.120;2023-05-10T07:07:17;6.35;;;2.92;;
61393;SDS011;48555;50.952;-0.120;2023-05-10T07:09:43;8.20;;;3.28;;
61393;SDS011;48555;50.952;-0.120;2023-05-10T07:12:08;8.45;;;3.08;;
61393;SDS011;48555;50.952;-0.120;2023-05-10T07:14:33;7.97;;;3.30;;
61393;SDS011;48555;50.952;-0.120;2023-05-10T07:16:59;12.35;;;3.25;;
61393;SDS011;48555;50.952;-0.120;2023-05-10T07:19:24;7.78;;;3.00;;
61393;SDS011;48555;50.952;-0.120;2023-05-10T07:21:49;9.77;;;3.30;;
61393;SDS011;48555;50.952;-0.120;2023-05-10T07:24:15;7.95;;;3.22;;
61393;SDS011;48555;50.952;-0.120;2023-05-10T07:26:41;7.22;;;3.10;;
61393;SDS011;48555;50.952;-0.120;2023-05-10T07:29:06;7.57;;;2.95;;
61393;SDS011;48555;50.952;-0.120;2023-05-10T07:31:32;7.35;;;3.17;;
61393;SDS011;48555;50.952;-0.120;2023-05-10T07:33:57;7.93;;;3.20;;
61393;SDS011;48555;50.952;-0.120;2023-05-10T07:36:22;10.25;;;3.30;;
61393;SDS011;48555;50.952;-0.120;2023-05-10T07:38:48;9.77;;;3.17;;
61393;SDS011;48555;50.952;-0.120;2023-05-10T07:41:14;8.02;;;3.33;;
61393;SDS011;48555;50.952;-0.120;2023-05-10T07:43:40;6.55;;;2.97;;
61393;SDS011;48555;50.952;-0.120;2023-05-10T07:46:05;9.23;;;3.38;;
61393;SDS011;48555;50.952;-0.120;2023-05-10T07:48:31;7.25;;;3.17;;
61393;SDS011;48555;50.952;-0.120;2023-05-10T07:50:56;10.85;;;3.47;;
61393;SDS011;48555;50.952;-0.120;2023-05-10T07:53:22;9.70;;;3.63;;
61393;SDS011;48555;50.952;-0.120;2023-05-10T07:55:51;8.02;;;2.90;;
61393;SDS011;48555;50.952;-0.120;2023-05-10T07:58:19;8.20;;;3.20;;
61393;SDS011;48555;50.952;-0.120;2023-05-10T08:00:45;8.27;;;2.97;;
61393;SDS011;48555;50.952;-0.120;2023-05-10T08:03:10;7.90;;;2.78;;
61393;SDS011;48555;50.952;-0.120;2023-05-10T08:05:35;9.27;;;3.20;;
61393;SDS011;48555;50.952;-0.120;2023-05-10T08:08:01;8.30;;;3.30;;
61393;SDS011;48555;50.952;-0.120;2023-05-10T08:10:26;9.38;;;3.40;;
61393;SDS011;48555;50.952;-0.120;2023-05-10T08:12:51;8.25;;;3.50;;
61393;SDS011;48555;50.952;-0.120;2023-05-10T08:15:17;8.02;;;2.95;;
61393;SDS011;48555;50.952;-0.120;2023-05-10T08:17:42;10.18;;;3.20;;
61393;SDS011;48555;50.952;-0.120;2023-05-10T08:20:08;9.40;;;3.40;;
61393;SDS011;48555;50.952;-0.120;2023-05-10T08:22:33;9.85;;;2.95;;
61393;SDS011;48555;50.952;-0.120;2023-05-10T08:24:59;7.72;;;2.90;;
61393;SDS011;48555;50.952;-0.120;2023-05-10T08:27:24;8.00;;;2.92;;
61393;SDS011;48555;50.952;-0.120;2023-05-10T08:29:49;8.30;;;2.97;;
61393;SDS011;48555;50.952;-0.120;2023-05-10T08:32:15;7.00;;;2.75;;
61393;SDS011;48555;50.952;-0.120;2023-05-10T08:34:40;8.80;;;3.03;;
61393;SDS011;48555;50.952;-0.120;2023-05-10T08:37:05;7.93;;;3.00;;
61393;SDS011;48555;50.952;-0.120;2023-05-10T08:39:33;7.75;;;2.55;;
61393;SDS011;48555;50.952;-0.120;2023-05-10T08:42:00;8.82;;;3.05;;
61393;SDS011;48555;50.952;-0.120;2023-05-10T08:44:29;8.93;;;3.13;;
61393;SDS011;48555;50.952;-0.120;2023-05-10T08:46:57;10.77;;;3.28;;
61393;SDS011;48555;50.952;-0.120;2023-05-10T08:49:24;7.65;;;3.00;;
61393;SDS011;48555;50.952;-0.120;2023-05-10T08:51:54;9.93;;;3.50;;
61393;SDS011;48555;50.952;-0.120;2023-05-10T08:54:21;6.45;;;3.03;;
61393;SDS011;48555;50.952;-0.120;2023-05-10T08:56:47;8.30;;;3.03;;
61393;SDS011;48555;50.952;-0.120;2023-05-10T08:59:12;6.63;;;2.95;;
61393;SDS011;48555;50.952;-0.120;2023-05-10T09:01:39;10.57;;;3.45;;
61393;SDS011;48555;50.952;-0.120;2023-05-10T09:04:06;8.20;;;3.65;;
61393;SDS011;48555;50.952;-0.120;2023-05-10T09:06:32;7.63;;;3.50;;
61393;SDS011;48555;50.952;-0.120;2023-05-10T09:08:58;7.22;;;3.13;;
61393;SDS011;48555;50.952;-0.120;2023-05-10T09:11:23;6.18;;;3.00;;
61393;SDS011;48555;50.952;-0.120;2023-05-10T09:13:49;7.28;;;2.90;;
61393;SDS011;48555;50.952;-0.120;2023-05-10T09:16:16;7.05;;;2.83;;
61393;SDS011;48555;50.952;-0.120;2023-05-10T09:18:41;7.18;;;2.80;;
61393;SDS011;48555;50.952;-0.120;2023-05-10T09:21:07;7.97;;;2.97;;
61393;SDS011;48555;50.952;-0.120;2023-05-10T09:23:34;7.32;;;2.78;;
61393;SDS011;48555;50.952;-0.120;2023-05-10T09:26:06;7.93;;;2.78;;
61393;SDS011;48555;50.952;-0.120;2023-05-10T09:28:50;8.07;;;2.95;;
61393;SDS011;48555;50.952;-0.120;2023-05-10T09:31:16;8.10;;;2.70;;
61393;SDS011;48555;50.952;-0.120;2023-05-10T09:33:45;8.57;;;2.63;;
61393;SDS011;48555;50.952;-0.120;2023-05-10T09:36:12;5.97;;;2.20;;
61393;SDS011;48555;50.952;-0.120;2023-05-10T09:39:11;6.45;;;2.17;;
61393;SDS011;48555;50.952;-0.120;2023-05-10T09:41:29;5.97;;;2.40;;
61393;SDS011;48555;50.952;-0.120;2023-05-10T09:43:55;9.57;;;2.53;;
61393;SDS011;48555;50.952;-0.120;2023-05-10T09:46:21;6.88;;;2.40;;
61393;SDS011;48555;50.952;-0.120;2023-05-10T09:48:50;7.10;;;2.42;;
61393;SDS011;48555;50.952;-0.120;2023-05-10T09:51:23;7.05;;;2.63;;
61393;SDS011;48555;50.952;-0.120;2023-05-10T09:54:11;6.78;;;2.67;;
61393;SDS011;48555;50.952;-0.120;2023-05-10T09:56:39;7.75;;;3.00;;
61393;SDS011;48555;50.952;-0.120;2023-05-10T09:59:06;7.38;;;2.80;;
61393;SDS011;48555;50.952;-0.120;2023-05-10T10:01:32;6.18;;;2.88;;
61393;SDS011;48555;50.952;-0.120;2023-05-10T10:03:58;6.07;;;2.70;;
61393;SDS011;48555;50.952;-0.120;2023-05-10T10:06:24;6.05;;;2.67;;
61393;SDS011;48555;50.952;-0.120;2023-05-10T10:08:50;8.27;;;2.70;;
61393;SDS011;48555;50.952;-0.120;2023-05-10T10:11:19;5.85;;;2.75;;
61393;SDS011;48555;50.952;-0.120;2023-05-10T10:13:45;6.28;;;3.00;;
61393;SDS011;48555;50.952;-0.120;2023-05-10T10:16:10;8.68;;;3.00;;
61393;SDS011;48555;50.952;-0.120;2023-05-10T10:18:36;5.80;;;2.80;;
61393;SDS011;48555;50.952;-0.120;2023-05-10T10:21:05;7.07;;;2.85;;
61393;SDS011;48555;50.952;-0.120;2023-05-10T10:23:33;9.07;;;3.50;;
61393;SDS011;48555;50.952;-0.120;2023-05-10T10:25:59;6.13;;;2.90;;
61393;SDS011;48555;50.952;-0.120;2023-05-10T10:28:49;6.20;;;2.60;;
61393;SDS011;48555;50.952;-0.120;2023-05-10T10:31:17;6.72;;;2.60;;
61393;SDS011;48555;50.952;-0.120;2023-05-10T10:34:06;7.57;;;2.45;;
61393;SDS011;48555;50.952;-0.120;2023-05-10T10:36:39;6.15;;;2.35;;
61393;SDS011;48555;50.952;-0.120;2023-05-10T10:39:10;5.55;;;2.00;;
61393;SDS011;48555;50.952;-0.120;2023-05-10T10:41:38;3.33;;;1.80;;
61393;SDS011;48555;50.952;-0.120;2023-05-10T10:49:42;4.72;;;1.58;;
61393;SDS011;48555;50.952;-0.120;2023-05-10T10:52:23;5.78;;;1.73;;
61393;SDS011;48555;50.952;-0.120;2023-05-10T10:55:14;5.60;;;1.92;;
61393;SDS011;48555;50.952;-0.120;2023-05-10T10:57:50;4.20;;;1.90;;
61393;SDS011;48555;50.952;-0.120;2023-05-10T11:00:38;5.50;;;1.73;;
61393;SDS011;48555;50.952;-0.120;2023-05-10T11:03:09;6.53;;;2.08;;
61393;SDS011;48555;50.952;-0.120;2023-05-10T11:05:50;4.72;;;1.48;;
61393;SDS011;48555;50.952;-0.120;2023-05-10T11:08:29;5.43;;;2.10;;
61393;SDS011;48555;50.952;-0.120;2023-05-10T11:13:28;6.05;;;1.90;;
61393;SDS011;48555;50.952;-0.120;2023-05-10T11:16:09;6.60;;;2.10;;
61393;SDS011;48555;50.952;-0.120;2023-05-10T11:18:36;4.28;;;1.80;;
61393;SDS011;48555;50.952;-0.120;2023-05-10T11:21:02;4.43;;;2.00;;
61393;SDS011;48555;50.952;-0.120;2023-05-10T11:23:47;4.90;;;2.10;;
61393;SDS011;48555;50.952;-0.120;2023-05-10T11:26:12;5.57;;;2.00;;
61393;SDS011;48555;50.952;-0.120;2023-05-10T11:28:45;5.75;;;2.00;;
61393;SDS011;48555;50.952;-0.120;2023-05-10T11:31:15;5.15;;;2.05;;
61393;SDS011;48555;50.952;-0.120;2023-05-10T11:33:44;6.63;;;2.08;;
61393;SDS011;48555;50.952;-0.120;2023-05-10T11:36:11;5.97;;;2.37;;
61393;SDS011;48555;50.952;-0.120;2023-05-10T11:38:41;8.90;;;2.28;;
61393;SDS011;48555;50.952;-0.120;2023-05-10T11:41:08;5.72;;;2.17;;
61393;SDS011;48555;50.952;-0.120;2023-05-10T11:43:34;7.28;;;2.15;;
61393;SDS011;48555;50.952;-0.120;2023-05-10T11:46:01;5.63;;;2.10;;
61393;SDS011;48555;50.952;-0.120;2023-05-10T11:48:29;6.38;;;2.33;;
61393;SDS011;48555;50.952;-0.120;2023-05-10T11:50:55;7.93;;;2.20;;
61393;SDS011;48555;50.952;-0.120;2023-05-10T11:53:22;5.80;;;2.35;;
61393;SDS011;48555;50.952;-0.120;2023-05-10T11:55:47;6.38;;;2.45;;
61393;SDS011;48555;50.952;-0.120;2023-05-10T11:58:13;5.07;;;1.90;;
61393;SDS011;48555;50.952;-0.120;2023-05-10T12:00:38;5.43;;;1.70;;
61393;SDS011;48555;50.952;-0.120;2023-05-10T12:03:04;3.78;;;1.60;;
61393;SDS011;48555;50.952;-0.120;2023-05-10T12:05:31;5.35;;;1.65;;
61393;SDS011;48555;50.952;-0.120;2023-05-10T12:08:31;5.70;;;1.80;;
61393;SDS011;48555;50.952;-0.120;2023-05-10T12:10:51;4.45;;;1.98;;
61393;SDS011;48555;50.952;-0.120;2023-05-10T12:13:18;5.22;;;2.00;;
61393;SDS011;48555;50.952;-0.120;2023-05-10T12:15:45;5.25;;;2.00;;
61393;SDS011;48555;50.952;-0.120;2023-05-10T12:18:11;4.63;;;2.00;;
61393;SDS011;48555;50.952;-0.120;2023-05-10T12:20:37;6.10;;;1.90;;
61393;SDS011;48555;50.952;-0.120;2023-05-10T12:23:04;5.85;;;2.47;;
61393;SDS011;48555;50.952;-0.120;2023-05-10T12:25:31;6.97;;;2.20;;
61393;SDS011;48555;50.952;-0.120;2023-05-10T12:28:00;6.45;;;2.35;;
61393;SDS011;48555;50.952;-0.120;2023-05-10T12:30:29;8.05;;;2.60;;
61393;SDS011;48555;50.952;-0.120;2023-05-10T12:33:00;8.13;;;2.40;;
61393;SDS011;48555;50.952;-0.120;2023-05-10T12:41:00;8.55;;;2.33;;
61393;SDS011;48555;50.952;-0.120;2023-05-10T12:43:31;9.68;;;2.30;;
61393;SDS011;48555;50.952;-0.120;2023-05-10T12:45:58;11.30;;;2.78;;
61393;SDS011;48555;50.952;-0.120;2023-05-10T12:48:23;9.73;;;2.50;;
61393;SDS011;48555;50.952;-0.120;2023-05-10T12:50:49;8.65;;;2.60;;
61393;SDS011;48555;50.952;-0.120;2023-05-10T12:53:15;10.73;;;2.53;;
61393;SDS011;48555;50.952;-0.120;2023-05-10T12:55:41;8.98;;;2.47;;
61393;SDS011;48555;50.952;-0.120;2023-05-10T12:58:07;10.93;;;2.53;;
61393;SDS011;48555;50.952;-0.120;2023-05-10T13:00:33;9.93;;;2.30;;
61393;SDS011;48555;50.952;-0.120;2023-05-10T13:02:58;8.82;;;2.40;;
61393;SDS011;48555;50.952;-0.120;2023-05-10T13:05:23;8.43;;;2.28;;
61393;SDS011;48555;50.952;-0.120;2023-05-10T13:07:49;10.00;;;2.65;;
61393;SDS011;48555;50.952;-0.120;2023-05-10T13:10:14;9.60;;;2.28;;
61393;SDS011;48555;50.952;-0.120;2023-05-10T13:12:41;10.85;;;2.92;;
61393;SDS011;48555;50.952;-0.120;2023-05-10T13:15:06;7.95;;;2.25;;
61393;SDS011;48555;50.952;-0.120;2023-05-10T13:17:32;9.52;;;2.28;;
61393;SDS011;48555;50.952;-0.120;2023-05-10T13:19:57;7.03;;;2.22;;
61393;SDS011;48555;50.952;-0.120;2023-05-10T13:22:23;8.60;;;2.25;;
61393;SDS011;48555;50.952;-0.120;2023-05-10T13:24:48;9.90;;;2.20;;
61393;SDS011;48555;50.952;-0.120;2023-05-10T13:27:13;8.10;;;2.20;;
61393;SDS011;48555;50.952;-0.120;2023-05-10T13:29:39;9.98;;;2.30;;
61393;SDS011;48555;50.952;-0.120;2023-05-10T13:32:04;7.95;;;2.40;;
61393;SDS011;48555;50.952;-0.120;2023-05-10T13:34:30;11.35;;;2.40;;
61393;SDS011;48555;50.952;-0.120;2023-05-10T13:36:55;8.57;;;2.65;;
61393;SDS011;48555;50.952;-0.120;2023-05-10T13:39:21;10.50;;;2.10;;
61393;SDS011;48555;50.952;-0.120;2023-05-10T13:41:47;9.88;;;2.40;;
61393;SDS011;48555;50.952;-0.120;2023-05-10T13:44:13;5.35;;;1.63;;
61393;SDS011;48555;50.952;-0.120;2023-05-10T13:46:39;8.90;;;1.48;;
61393;SDS011;48555;50.952;-0.120;2023-05-10T13:49:05;4.57;;;1.30;;
61393;SDS011;48555;50.952;-0.120;2023-05-10T13:51:31;6.05;;;1.70;;
61393;SDS011;48555;50.952;-0.120;2023-05-10T13:53:56;4.18;;;1.30;;
61393;SDS011;48555;50.952;-0.120;2023-05-10T13:56:22;4.70;;;1.48;;
61393;SDS011;48555;50.952;-0.120;2023-05-10T13:58:48;5.32;;;1.60;;
61393;SDS011;48555;50.952;-0.120;2023-05-10T14:01:13;3.58;;;1.35;;
61393;SDS011;48555;50.952;-0.120;2023-05-10T14:03:39;4.80;;;1.35;;
61393;SDS011;48555;50.952;-0.120;2023-05-10T14:06:04;4.55;;;1.35;;
61393;SDS011;48555;50.952;-0.120;2023-05-10T14:08:32;5.75;;;1.77;;
61393;SDS011;48555;50.952;-0.120;2023-05-10T14:10:57;3.67;;;1.40;;
61393;SDS011;48555;50.952;-0.120;2023-05-10T14:13:23;6.07;;;1.77;;
61393;SDS011;48555;50.952;-0.120;2023-05-10T14:15:48;3.45;;;1.55;;
61393;SDS011;48555;50.952;-0.120;2023-05-10T14:18:14;5.57;;;1.52;;
61393;SDS011;48555;50.952;-0.120;2023-05-10T14:20:39;4.18;;;1.65;;
61393;SDS011;48555;50.952;-0.120;2023-05-10T14:23:04;5.03;;;1.67;;
61393;SDS011;48555;50.952;-0.120;2023-05-10T14:25:30;6.60;;;1.70;;
61393;SDS011;48555;50.952;-0.120;2023-05-10T14:27:55;6.35;;;2.05;;
61393;SDS011;48555;50.952;-0.120;2023-05-10T14:30:20;4.85;;;1.52;;
61393;SDS011;48555;50.952;-0.120;2023-05-10T14:32:46;5.45;;;1.73;;
61393;SDS011;48555;50.952;-0.120;2023-05-10T14:35:11;4.65;;;1.60;;
61393;SDS011;48555;50.952;-0.120;2023-05-10T14:37:37;4.00;;;1.45;;
61393;SDS011;48555;50.952;-0.120;2023-05-10T14:40:03;4.43;;;1.45;;
61393;SDS011;48555;50.952;-0.120;2023-05-10T14:42:31;6.15;;;1.70;;
61393;SDS011;48555;50.952;-0.120;2023-05-10T14:44:57;6.70;;;1.67;;
61393;SDS011;48555;50.952;-0.120;2023-05-10T14:47:22;4.43;;;1.40;;
61393;SDS011;48555;50.952;-0.120;2023-05-10T14:49:47;5.18;;;1.70;;
61393;SDS011;48555;50.952;-0.120;2023-05-10T14:52:13;5.35;;;1.38;;
61393;SDS011;48555;50.952;-0.120;2023-05-10T14:54:39;4.97;;;1.50;;
61393;SDS011;48555;50.952;-0.120;2023-05-10T14:57:06;4.38;;;1.75;;
61393;SDS011;48555;50.952;-0.120;2023-05-10T14:59:31;3.55;;;1.52;;
61393;SDS011;48555;50.952;-0.120;2023-05-10T15:01:57;4.93;;;1.55;;
61393;SDS011;48555;50.952;-0.120;2023-05-10T15:04:22;5.72;;;1.48;;
61393;SDS011;48555;50.952;-0.120;2023-05-10T15:06:48;3.65;;;1.30;;
61393;SDS011;48555;50.952;-0.120;2023-05-10T15:09:13;4.72;;;1.60;;